Time;durP1;ratioP1;P1;durP2;ratioP2;P2;SDS_P1;SDS_P2;PMS_P1;PMS_P2;Temp;Humidity;BMP_temperature;BMP_pressure;BME280_temperature;BME280_humidity;BME280_pressure;Samples;Min_cycle;Max_cycle;Signal;HPM_P1;HPM_P2
2021/06/12 00:01:57;;;;;;;19.57;12.40;;;;;;;15.41;73.36;99072.84;1745271;82;21497;-78
2021/06/12 00:04:23;;;;;;;21.68;13.10;;;;;;;15.31;73.57;99070.27;1746091;82;21025;-79
2021/06/12 00:06:50;;;;;;;23.45;12.73;;;;;;;15.27;73.65;99072.05;1740574;82;21076;-80
2021/06/12 00:09:17;;;;;;;19.30;13.08;;;;;;;15.24;73.69;99071.87;1716132;84;21111;-80
2021/06/12 00:11:44;;;;;;;21.75;12.82;;;;;;;15.22;73.81;99065.38;1734822;82;21072;-81
2021/06/12 00:14:11;;;;;;;17.02;11.57;;;;;;;15.31;73.62;99062.78;1731931;82;21508;-78
2021/06/12 00:16:39;;;;;;;16.45;11.50;;;;;;;15.28;73.50;99064.41;1680580;84;21123;-80
2021/06/12 00:19:07;;;;;;;19.05;12.75;;;;;;;15.13;73.72;99054.80;1745769;82;21072;-79
2021/06/12 00:21:36;;;;;;;19.98;12.47;;;;;;;14.99;74.15;99058.88;1744885;82;21025;-79
2021/06/12 00:24:04;;;;;;;20.17;13.25;;;;;;;14.96;74.44;99050.70;1739628;82;21029;-80
2021/06/12 00:26:32;;;;;;;18.87;12.98;;;;;;;15.06;74.34;99051.92;1745635;82;21064;-82
2021/06/12 00:28:58;;;;;;;18.80;13.00;;;;;;;15.05;74.41;99051.58;1745239;82;21029;-82
2021/06/12 00:31:24;;;;;;;18.92;13.32;;;;;;;14.97;74.71;99051.02;1762657;80;21041;-81
2021/06/12 00:33:51;;;;;;;16.60;11.97;;;;;;;14.91;74.83;99044.97;1754602;81;20997;-80
2021/06/12 00:36:19;;;;;;;20.43;13.10;;;;;;;14.82;75.06;99046.75;1744317;81;20954;-78
2021/06/12 00:38:50;;;;;;;18.80;13.40;;;;;;;14.83;75.16;99043.58;1743576;81;21608;-80
2021/06/12 00:41:21;;;;;;;21.60;13.22;;;;;;;14.98;74.96;99047.87;1744310;81;21528;-80
2021/06/12 00:43:48;;;;;;;18.73;13.58;;;;;;;15.02;74.92;99053.23;1747105;79;21084;-81
2021/06/12 00:46:14;;;;;;;17.12;13.18;;;;;;;14.98;75.07;99046.55;1750474;79;21480;-81
2021/06/12 00:48:44;;;;;;;15.40;12.85;;;;;;;14.93;74.92;99050.98;1753719;79;20978;-80
2021/06/12 00:51:11;;;;;;;19.23;12.35;;;;;;;14.93;74.64;99047.50;1743404;82;21045;-80
2021/06/12 00:53:40;;;;;;;21.33;13.85;;;;;;;15.02;74.22;99046.57;1743193;82;21045;-80
2021/06/12 00:56:15;;;;;;;20.12;13.88;;;;;;;15.00;74.43;99051.20;1743500;82;21032;-81
2021/06/12 00:58:43;;;;;;;20.00;13.80;;;;;;;14.98;74.49;99053.20;1743864;81;21589;-81
2021/06/12 01:01:13;;;;;;;19.10;13.43;;;;;;;14.90;74.41;99049.97;1751500;81;20990;-79
2021/06/12 01:03:40;;;;;;;19.60;13.62;;;;;;;14.91;74.36;99057.80;1782640;79;21001;-80
2021/06/12 01:06:09;;;;;;;18.90;12.70;;;;;;;15.04;73.98;99053.92;1805611;79;21055;-81
2021/06/12 01:08:38;;;;;;;16.02;12.20;;;;;;;14.98;74.16;99057.19;1781532;79;21036;-81
2021/06/12 01:11:05;;;;;;;17.30;12.33;;;;;;;14.82;74.37;99056.06;1759103;80;20990;-80
2021/06/12 01:14:03;;;;;;;23.77;13.18;;;;;;;14.65;74.86;99060.38;1782644;79;21028;-81
2021/06/12 01:16:47;;;;;;;19.07;11.78;;;;;;;14.65;74.90;99063.54;1797645;79;21072;-80
2021/06/12 01:19:39;;;;;;;16.97;12.07;;;;;;;14.59;75.01;99059.13;1755803;80;21021;-80
2021/06/12 01:22:14;;;;;;;17.87;12.63;;;;;;;14.41;75.45;99054.27;1752319;81;21025;-80
2021/06/12 01:25:09;;;;;;;21.93;13.75;;;;;;;14.22;76.02;99056.08;1774028;81;21012;-79
2021/06/12 01:28:09;;;;;;;14.83;12.65;;;;;;;14.22;76.19;99052.56;1752310;79;21074;-80
2021/06/12 01:30:36;;;;;;;20.15;12.63;;;;;;;14.35;76.09;99057.05;1746418;81;21045;-81
2021/06/12 01:33:06;;;;;;;18.15;13.08;;;;;;;14.37;76.07;99052.91;1770746;81;21540;-80
2021/06/12 01:35:39;;;;;;;19.75;13.13;;;;;;;14.37;75.98;99052.91;1776846;81;21473;-80
2021/06/12 01:38:07;;;;;;;22.62;13.18;;;;;;;14.39;75.96;99054.93;1776224;81;22068;-81
2021/06/12 01:40:37;;;;;;;22.45;13.60;;;;;;;14.51;75.61;99063.02;1751350;81;20977;-80
2021/06/12 01:43:03;;;;;;;17.60;13.18;;;;;;;14.63;75.46;99063.66;1718948;82;21080;-80
2021/06/12 01:45:30;;;;;;;15.78;12.58;;;;;;;14.59;75.58;99063.13;1746408;82;21325;-80
2021/06/12 01:47:56;;;;;;;16.82;12.53;;;;;;;14.55;75.58;99063.09;1776236;81;20985;-78
2021/06/12 01:50:23;;;;;;;14.95;12.40;;;;;;;14.57;75.46;99054.44;1759390;81;21013;-80
2021/06/12 01:52:51;;;;;;;15.70;13.10;;;;;;;14.74;75.03;99053.30;1746146;82;21048;-79
2021/06/12 01:55:21;;;;;;;17.67;13.38;;;;;;;14.80;74.85;99054.03;1746393;82;22097;-79
2021/06/12 01:57:48;;;;;;;28.77;14.38;;;;;;;14.77;74.79;99055.69;1772778;81;21512;-78
2021/06/12 02:00:14;;;;;;;20.37;13.28;;;;;;;14.71;74.84;99056.28;1772885;81;21024;-79
2021/06/12 02:02:43;;;;;;;33.50;14.73;;;;;;;14.74;74.70;99050.64;1775997;81;20973;-78
2021/06/12 02:05:13;;;;;;;34.33;13.80;;;;;;;14.85;74.41;99049.09;1777094;81;21044;-78
2021/06/12 02:07:41;;;;;;;31.45;14.05;;;;;;;14.83;74.48;99049.73;1774083;81;21575;-79
2021/06/12 02:10:09;;;;;;;26.85;12.80;;;;;;;14.80;74.44;99056.70;1748299;81;21497;-79
2021/06/12 02:12:36;;;;;;;25.00;13.30;;;;;;;14.73;74.49;99059.61;1776891;81;21029;-79
2021/06/12 02:15:05;;;;;;;19.90;11.80;;;;;;;14.78;74.55;99062.66;1776883;81;21001;-79
2021/06/12 02:17:32;;;;;;;20.40;12.98;;;;;;;14.93;74.42;99050.16;1765560;81;21068;-79
2021/06/12 02:19:58;;;;;;;19.65;13.68;;;;;;;14.91;74.51;99059.61;1776952;81;21129;-78
2021/06/12 02:22:24;;;;;;;22.95;12.65;;;;;;;14.84;74.87;99059.39;1746791;81;21552;-80
2021/06/12 02:24:51;;;;;;;17.52;11.65;;;;;;;14.75;74.97;99073.62;1746165;82;21029;-81
2021/06/12 02:27:19;;;;;;;22.50;13.72;;;;;;;14.76;74.90;99069.97;1752122;81;21056;-82
2021/06/12 02:29:45;;;;;;;21.62;14.13;;;;;;;14.88;74.54;99066.08;1761494;81;21001;-82
2021/06/12 02:32:13;;;;;;;23.25;13.48;;;;;;;14.89;74.60;99068.26;1774763;80;21571;-82
2021/06/12 02:34:40;;;;;;;18.75;12.65;;;;;;;14.89;74.81;99070.92;1773973;81;21028;-80
2021/06/12 02:37:07;;;;;;;19.77;12.23;;;;;;;14.86;75.04;99073.39;1751302;79;21934;-78
2021/06/12 02:39:34;;;;;;;20.85;12.98;;;;;;;14.96;75.01;99073.80;1754295;81;21474;-82
2021/06/12 02:42:01;;;;;;;18.02;12.85;;;;;;;15.08;74.85;99071.26;1790651;79;21044;-82
2021/06/12 02:44:28;;;;;;;21.23;14.18;;;;;;;15.11;75.01;99076.77;1733899;82;21006;-82
2021/06/12 02:46:57;;;;;;;21.35;13.10;;;;;;;15.09;75.28;99080.92;1790018;79;21040;-83
2021/06/12 02:49:27;;;;;;;19.40;13.30;;;;;;;15.12;75.46;99085.11;1787981;79;21037;-85
2021/06/12 02:52:01;;;;;;;16.97;11.95;;;;;;;15.27;75.48;99084.04;1805657;79;21498;-84
2021/06/12 02:54:29;;;;;;;18.70;12.75;;;;;;;15.42;75.41;99075.83;1805705;79;21552;-84
2021/06/12 02:56:56;;;;;;;17.55;12.65;;;;;;;15.44;75.47;99085.84;1730519;83;21014;-84
2021/06/12 02:59:23;;;;;;;17.50;12.28;;;;;;;15.45;75.57;99089.33;1694414;84;21047;-83
2021/06/12 03:01:50;;;;;;;15.80;11.20;;;;;;;15.42;75.65;99089.15;1743364;82;21117;-83
2021/06/12 03:04:17;;;;;;;25.75;18.32;;;;;;;15.23;75.71;99049.73;1743828;81;21067;-82
2021/06/12 03:06:47;;;;;;;25.55;18.27;;;;;;;15.62;75.71;99087.64;1743260;82;21032;-82
2021/06/12 03:09:17;;;;;;;23.47;14.80;;;;;;;15.71;75.83;99090.69;1749697;79;21040;-82
2021/06/12 03:11:43;;;;;;;22.75;15.18;;;;;;;15.75;76.02;99084.55;1743296;82;21470;-82
2021/06/12 03:14:10;;;;;;;21.77;14.87;;;;;;;15.75;76.18;99090.70;1743004;82;21604;-82
2021/06/12 03:16:40;;;;;;;18.32;12.53;;;;;;;15.87;76.05;99088.15;1724361;82;21545;-82
2021/06/12 03:19:07;;;;;;;18.27;13.95;;;;;;;16.05;75.73;99086.73;1765100;81;20993;-82
2021/06/12 03:21:33;;;;;;;17.25;13.53;;;;;;;16.14;75.71;99080.09;1773898;80;21040;-81
2021/06/12 03:24:00;;;;;;;16.95;12.65;;;;;;;16.20;75.76;99087.45;1793622;79;21033;-80
2021/06/12 03:26:27;;;;;;;20.32;12.60;;;;;;;16.29;75.79;99089.66;1803589;79;20982;-81
2021/06/12 03:28:53;;;;;;;15.50;12.00;;;;;;;16.49;75.41;99096.39;1754417;81;20989;-82
2021/06/12 03:31:20;;;;;;;16.42;12.40;;;;;;;16.74;75.17;99102.30;1745905;82;21092;-83
2021/06/12 03:33:46;;;;;;;14.95;12.00;;;;;;;17.16;74.94;99090.70;1724457;82;21025;-80
2021/06/12 03:36:13;;;;;;;18.65;12.82;;;;;;;17.96;73.81;99103.84;1743298;82;21490;-81
2021/06/12 03:38:40;;;;;;;17.85;12.93;;;;;;;18.66;72.07;99101.69;1760267;81;20990;-81
2021/06/12 03:41:06;;;;;;;16.87;12.28;;;;;;;19.37;69.81;99100.70;1762039;80;21053;-79
2021/06/12 03:43:36;;;;;;;17.05;10.98;;;;;;;20.04;67.70;99100.41;1743799;81;21049;-79
2021/06/12 03:47:07;;;;;;;16.82;12.73;;;;;;;21.01;64.86;99091.77;1873785;76;22982;-81
2021/06/12 03:49:34;;;;;;;19.15;12.47;;;;;;;21.48;62.90;99095.37;1834931;77;20953;-81
2021/06/12 03:52:00;;;;;;;20.92;13.75;;;;;;;21.79;61.35;99090.12;1842993;78;20967;-81
2021/06/12 03:54:26;;;;;;;17.48;13.18;;;;;;;22.02;60.44;99090.70;1846918;77;20982;-81
2021/06/12 03:56:53;;;;;;;17.10;13.85;;;;;;;22.25;59.47;99098.97;1836381;77;21452;-82
2021/06/12 03:59:19;;;;;;;16.55;12.15;;;;;;;22.41;59.15;99086.54;1831527;78;21052;-82
2021/06/12 04:01:47;;;;;;;15.60;12.93;;;;;;;22.65;58.65;99097.83;1810757;78;21012;-81
2021/06/12 04:04:13;;;;;;;15.35;12.43;;;;;;;22.92;57.91;99092.50;1836823;77;21020;-82
2021/06/12 04:06:40;;;;;;;15.45;11.95;;;;;;;23.18;57.28;99092.25;1833796;77;21038;-82
2021/06/12 04:09:07;;;;;;;18.57;11.35;;;;;;;23.46;56.75;99095.27;1827426;78;20999;-81
2021/06/12 04:11:33;;;;;;;12.37;10.13;;;;;;;23.74;56.39;99095.03;1831540;77;20933;-81
2021/06/12 04:14:00;;;;;;;13.38;9.73;;;;;;;24.09;55.62;99096.65;1810762;78;21602;-81
2021/06/12 04:16:26;;;;;;;10.60;9.13;;;;;;;24.33;54.79;99096.47;1831560;78;21105;-80
2021/06/12 04:18:55;;;;;;;11.90;10.63;;;;;;;24.48;54.59;99102.42;1849902;77;20975;-78
2021/06/12 04:21:21;;;;;;;12.05;9.75;;;;;;;24.81;54.03;99108.22;1851441;77;21022;-78
2021/06/12 04:23:48;;;;;;;13.75;9.85;;;;;;;25.07;52.93;99103.69;1851526;77;21035;-80
2021/06/12 04:26:15;;;;;;;12.07;10.60;;;;;;;25.18;52.66;99104.88;1851569;77;21144;-80
2021/06/12 04:28:43;;;;;;;12.93;10.30;;;;;;;25.28;52.47;99109.78;1837048;77;21048;-79
2021/06/12 04:31:09;;;;;;;10.65;8.88;;;;;;;25.41;52.50;99109.72;1831559;78;20984;-79
2021/06/12 04:33:37;;;;;;;10.70;9.28;;;;;;;25.60;51.63;99113.31;1831340;78;21011;-80
2021/06/12 04:36:05;;;;;;;12.45;9.15;;;;;;;25.64;51.28;99110.45;1831226;78;21024;-82
2021/06/12 04:38:32;;;;;;;11.10;9.15;;;;;;;25.64;51.21;99107.75;1829255;77;21070;-80
2021/06/12 04:40:58;;;;;;;12.18;8.98;;;;;;;25.74;50.77;99113.17;1827823;77;20984;-78
2021/06/12 04:43:26;;;;;;;13.35;8.13;;;;;;;26.01;50.41;99114.58;1830931;78;21040;-79
2021/06/12 04:45:52;;;;;;;12.98;8.95;;;;;;;26.10;49.42;99111.58;1830789;78;21056;-79
2021/06/12 04:48:22;;;;;;;14.05;9.50;;;;;;;26.04;49.37;99109.74;1831044;78;21052;-79
2021/06/12 04:50:50;;;;;;;11.10;9.00;;;;;;;26.07;49.26;99112.05;1831277;78;21487;-82
2021/06/12 04:53:16;;;;;;;12.85;10.38;;;;;;;26.20;49.35;99107.82;1837319;77;21012;-81
2021/06/12 04:55:43;;;;;;;14.05;9.18;;;;;;;26.27;48.49;99112.65;1835886;77;21007;-82
2021/06/12 04:58:10;;;;;;;11.83;9.43;;;;;;;26.27;48.48;99108.58;1842468;78;21002;-84
2021/06/12 05:00:38;;;;;;;10.90;8.28;;;;;;;26.43;48.60;99109.02;1843020;78;21015;-81
2021/06/12 05:03:05;;;;;;;10.43;6.90;;;;;;;26.75;47.86;99103.42;1830817;78;21023;-79
2021/06/12 05:05:32;;;;;;;39.98;8.83;;;;;;;26.94;47.40;99100.94;1830360;78;21059;-84
2021/06/12 05:08:00;;;;;;;19.73;8.35;;;;;;;27.20;47.25;99098.91;1829992;78;21071;-81
2021/06/12 05:10:26;;;;;;;9.55;5.28;;;;;;;27.37;46.18;99099.59;1823854;78;21086;-82
2021/06/12 05:12:53;;;;;;;6.15;4.70;;;;;;;27.43;45.04;99100.02;1823982;79;21034;-81
2021/06/12 05:15:23;;;;;;;8.38;5.40;;;;;;;27.51;44.39;99102.91;1835908;77;20956;-81
2021/06/12 05:17:51;;;;;;;6.03;4.72;;;;;;;27.55;43.84;99103.58;1830098;78;21015;-83
2021/06/12 05:20:17;;;;;;;5.40;4.75;;;;;;;27.58;43.85;99103.09;1830630;78;20988;-83
2021/06/12 05:22:43;;;;;;;6.22;4.10;;;;;;;27.59;43.42;99098.50;1830744;78;21030;-83
2021/06/12 05:25:11;;;;;;;7.75;4.87;;;;;;;27.64;43.84;99103.52;1839592;77;21035;-83
2021/06/12 05:27:37;;;;;;;4.70;4.30;;;;;;;27.82;43.25;99097.67;1837898;77;20991;-83
2021/06/12 05:30:05;;;;;;;5.97;4.05;;;;;;;27.77;42.47;99095.66;1833002;78;20981;-83
2021/06/12 05:32:31;;;;;;;5.60;4.10;;;;;;;27.41;43.68;99107.58;1831141;77;21552;-82
2021/06/12 05:35:00;;;;;;;5.15;3.75;;;;;;;27.26;43.89;99098.49;1832924;77;21323;-84
2021/06/12 05:37:26;;;;;;;5.50;3.80;;;;;;;27.25;44.06;99103.11;1839859;77;20984;-82
2021/06/12 05:39:55;;;;;;;20.72;4.00;;;;;;;27.32;43.82;99098.92;1835745;78;21017;-83
2021/06/12 05:42:21;;;;;;;8.28;3.40;;;;;;;27.61;43.61;99097.20;1831790;78;21478;-86
2021/06/12 05:44:47;;;;;;;5.75;3.30;;;;;;;28.06;42.33;99097.14;1839388;77;21126;-82
2021/06/12 05:47:13;;;;;;;4.40;3.27;;;;;;;28.31;41.20;99087.86;1844777;77;21070;-82
2021/06/12 05:49:40;;;;;;;3.05;2.65;;;;;;;28.37;39.84;99095.60;1842252;77;20987;-85
2021/06/12 05:52:07;;;;;;;4.62;3.85;;;;;;;28.18;39.81;99097.66;1842247;77;20940;-80
2021/06/12 05:54:33;;;;;;;3.40;3.05;;;;;;;27.93;40.56;99092.77;1836118;78;21058;-81
2021/06/12 05:56:59;;;;;;;3.80;3.30;;;;;;;27.84;40.87;99091.99;1835407;78;20999;-81
2021/06/12 05:59:27;;;;;;;3.95;3.30;;;;;;;27.66;40.75;99098.38;1808482;77;20933;-82
2021/06/12 06:01:53;;;;;;;5.37;3.37;;;;;;;27.62;40.98;99093.95;1844062;77;21044;-83
2021/06/12 06:04:19;;;;;;;4.17;3.55;;;;;;;27.52;41.83;99089.13;1843544;77;21029;-82
2021/06/12 06:06:46;;;;;;;5.45;3.60;;;;;;;27.42;41.56;99086.17;1847521;77;21025;-82
2021/06/12 06:09:13;;;;;;;6.78;3.85;;;;;;;27.27;42.06;99093.37;1836883;77;20963;-82
2021/06/12 06:11:42;;;;;;;5.45;3.92;;;;;;;27.18;42.32;99097.48;1848995;77;20986;-84
2021/06/12 06:14:09;;;;;;;5.53;3.85;;;;;;;27.25;41.09;99094.97;1852118;77;20981;-82
2021/06/12 06:16:36;;;;;;;5.80;4.05;;;;;;;27.27;41.12;99088.75;1814989;77;21007;-79
2021/06/12 06:19:02;;;;;;;4.25;3.70;;;;;;;27.25;41.65;99088.17;1842386;77;20956;-79
2021/06/12 06:21:29;;;;;;;4.67;3.67;;;;;;;27.35;42.37;99097.08;1841768;77;21027;-80
2021/06/12 06:23:55;;;;;;;5.75;3.60;;;;;;;27.53;41.50;99093.47;1853895;77;21033;-80
2021/06/12 06:26:23;;;;;;;5.35;4.12;;;;;;;27.58;41.39;99094.13;1847235;77;21103;-81
2021/06/12 06:28:50;;;;;;;5.62;3.72;;;;;;;27.71;40.85;99093.06;1841741;77;21040;-82
2021/06/12 06:31:18;;;;;;;5.50;3.70;;;;;;;27.75;41.16;99091.01;1832561;78;21020;-82
2021/06/12 06:33:46;;;;;;;5.05;3.58;;;;;;;27.68;41.77;99090.83;1836772;78;21029;-82
2021/06/12 06:36:14;;;;;;;4.45;3.87;;;;;;;27.76;41.99;99093.18;1841210;76;20955;-82
2021/06/12 06:38:41;;;;;;;28.85;6.00;;;;;;;27.81;40.58;99096.01;1857853;77;20973;-84
2021/06/12 06:41:08;;;;;;;25.17;5.72;;;;;;;27.53;40.80;99096.19;1854432;77;21561;-80
2021/06/12 06:43:35;;;;;;;12.28;4.80;;;;;;;27.34;41.54;99100.03;1844894;77;20962;-84
2021/06/12 06:46:02;;;;;;;12.13;4.70;;;;;;;27.28;41.70;99101.27;1838702;77;21074;-82
2021/06/12 06:48:30;;;;;;;5.03;4.47;;;;;;;27.25;41.48;99099.03;1832172;77;20995;-83
2021/06/12 06:50:56;;;;;;;6.17;4.45;;;;;;;27.12;41.28;99088.38;1838638;77;21293;-79
2021/06/12 06:53:23;;;;;;;7.17;4.08;;;;;;;27.08;41.22;99100.22;1832609;78;20973;-81
2021/06/12 06:55:51;;;;;;;5.65;4.12;;;;;;;27.01;41.64;99093.23;1836779;77;21023;-80
2021/06/12 06:58:18;;;;;;;5.58;4.28;;;;;;;26.86;42.54;99095.86;1844537;78;21052;-79
2021/06/12 07:00:44;;;;;;;4.28;3.87;;;;;;;26.69;42.46;99096.17;1833421;78;21027;-79
2021/06/12 07:03:11;;;;;;;7.25;4.28;;;;;;;26.46;43.05;99099.09;1830873;78;21071;-79
2021/06/12 07:05:38;;;;;;;4.90;4.40;;;;;;;26.34;43.14;99093.59;1833010;77;21472;-79
2021/06/12 07:08:06;;;;;;;6.83;4.30;;;;;;;26.32;43.17;99093.82;1832910;78;20976;-80
2021/06/12 07:10:33;;;;;;;6.53;4.40;;;;;;;26.32;43.38;99097.08;1827312;78;20974;-81
2021/06/12 07:13:01;;;;;;;6.28;4.33;;;;;;;26.47;43.01;99093.95;1833456;78;20978;-82
2021/06/12 07:15:27;;;;;;;5.83;4.47;;;;;;;26.50;42.55;99097.58;1833644;78;20947;-82
2021/06/12 07:17:54;;;;;;;5.47;4.30;;;;;;;26.48;42.59;99096.96;1832130;77;21023;-82
2021/06/12 07:20:20;;;;;;;8.80;4.60;;;;;;;26.57;42.96;99097.48;1833560;78;20981;-81
2021/06/12 07:22:48;;;;;;;4.37;3.98;;;;;;;26.68;43.47;99092.64;1833533;78;21013;-81
2021/06/12 07:25:15;;;;;;;4.62;3.90;;;;;;;26.75;42.93;99088.50;1833557;78;21073;-81
2021/06/12 07:27:41;;;;;;;5.42;4.05;;;;;;;26.76;42.63;99093.69;1833872;78;21513;-81
2021/06/12 07:30:08;;;;;;;18.02;4.90;;;;;;;26.95;42.74;99089.04;1833587;78;22108;-81
2021/06/12 07:32:35;;;;;;;7.37;4.55;;;;;;;27.19;42.88;99093.18;1833215;78;21041;-81
2021/06/12 07:35:01;;;;;;;5.45;4.87;;;;;;;27.37;43.14;99084.66;1833589;78;21017;-81
2021/06/12 07:37:27;;;;;;;5.30;4.53;;;;;;;27.53;42.13;99092.11;1833661;77;21761;-81
2021/06/12 07:39:54;;;;;;;5.30;4.20;;;;;;;27.38;42.58;99084.92;1842455;77;21459;-80
2021/06/12 07:42:20;;;;;;;6.80;4.70;;;;;;;27.19;42.17;99092.33;1833471;78;21568;-81
2021/06/12 07:44:47;;;;;;;6.30;4.40;;;;;;;27.06;41.25;99089.30;1833823;78;21564;-79
2021/06/12 07:47:13;;;;;;;6.00;4.80;;;;;;;26.97;41.65;99086.09;1835755;77;21472;-80
2021/06/12 07:49:39;;;;;;;5.67;4.62;;;;;;;26.97;42.90;99089.64;1829121;77;20963;-80
2021/06/12 07:52:06;;;;;;;11.73;9.20;;;;;;;27.08;41.42;99091.26;1835053;77;21504;-80
2021/06/12 07:54:32;;;;;;;15.90;14.23;;;;;;;27.07;41.50;99090.95;1836222;77;20991;-80
2021/06/12 07:56:59;;;;;;;5.95;5.30;;;;;;;27.05;41.55;99089.03;1831313;77;20980;-80
2021/06/12 07:59:25;;;;;;;10.05;5.10;;;;;;;27.03;41.69;99089.23;1839486;77;21005;-79
2021/06/12 08:01:51;;;;;;;8.13;4.95;;;;;;;26.99;41.99;99094.30;1835445;77;21000;-83
2021/06/12 08:04:19;;;;;;;5.47;4.60;;;;;;;26.97;42.13;99089.64;1841927;77;20991;-83
2021/06/12 08:06:45;;;;;;;6.60;4.75;;;;;;;26.99;41.66;99092.12;1843360;77;20937;-82
2021/06/12 08:09:13;;;;;;;5.60;4.92;;;;;;;26.85;41.52;99086.60;1836572;78;20988;-81
2021/06/12 08:11:40;;;;;;;5.03;4.53;;;;;;;26.63;42.07;99086.54;1836327;77;20968;-80
2021/06/12 08:14:08;;;;;;;5.90;4.62;;;;;;;26.47;42.45;99092.08;1837686;77;20967;-81
2021/06/12 08:16:35;;;;;;;5.62;4.42;;;;;;;26.39;42.82;99084.78;1846387;77;21274;-82
2021/06/12 08:19:02;;;;;;;6.12;4.17;;;;;;;26.32;41.96;99087.05;1851759;77;21299;-80
2021/06/12 08:21:28;;;;;;;5.90;4.15;;;;;;;26.36;42.42;99093.35;1841732;77;20936;-86
2021/06/12 08:23:56;;;;;;;6.03;4.58;;;;;;;26.46;42.47;99086.89;1836480;77;21025;-79
2021/06/12 08:26:22;;;;;;;6.47;4.35;;;;;;;26.47;42.96;99089.88;1836556;77;21073;-82
2021/06/12 08:28:51;;;;;;;6.25;4.90;;;;;;;26.30;42.20;99095.92;1834402;77;20998;-80
2021/06/12 08:31:18;;;;;;;5.72;4.47;;;;;;;26.20;42.75;99087.50;1841133;77;21046;-83
2021/06/12 08:33:48;;;;;;;4.92;4.35;;;;;;;26.25;42.95;99093.06;1839783;77;21043;-79
2021/06/12 08:36:16;;;;;;;5.75;4.78;;;;;;;26.32;42.78;99092.47;1836768;78;21505;-83
2021/06/12 08:38:44;;;;;;;10.15;4.40;;;;;;;26.48;42.40;99082.05;1840815;77;21491;-81
2021/06/12 08:41:11;;;;;;;7.95;4.60;;;;;;;26.69;42.16;99082.61;1851327;77;21448;-81
2021/06/12 08:43:38;;;;;;;6.03;5.10;;;;;;;26.89;41.72;99083.72;1845679;77;21554;-81
2021/06/12 08:46:04;;;;;;;6.45;4.35;;;;;;;26.95;41.87;99084.97;1838653;77;21059;-80
2021/06/12 08:48:30;;;;;;;6.05;4.70;;;;;;;26.81;41.76;99087.59;1841713;77;20980;-81
2021/06/12 08:50:57;;;;;;;5.28;3.90;;;;;;;26.80;41.85;99084.06;1840179;77;20952;-77
2021/06/12 08:53:24;;;;;;;7.37;3.87;;;;;;;26.70;40.99;99075.59;1831205;77;20999;-79
2021/06/12 08:55:51;;;;;;;6.30;3.75;;;;;;;26.62;41.82;99082.16;1830545;77;21012;-78
2021/06/12 08:58:18;;;;;;;6.50;4.20;;;;;;;26.75;41.29;99070.87;1829419;77;20992;-77
2021/06/12 09:00:44;;;;;;;8.48;4.50;;;;;;;26.82;40.96;99075.14;1827387;77;21004;-78
2021/06/12 09:03:16;;;;;;;59.73;22.42;;;;;;;26.88;41.04;99073.92;1825396;78;21019;-78
2021/06/12 09:06:00;;;;;;;6.50;4.00;;;;;;;27.10;41.40;99074.23;1833512;77;21360;-78
2021/06/12 09:08:30;;;;;;;5.47;4.72;;;;;;;27.29;40.58;99067.64;1833009;77;21508;-78
2021/06/12 09:11:05;;;;;;;5.72;4.20;;;;;;;27.15;40.83;99074.36;1827197;78;21009;-78
2021/06/12 09:13:57;;;;;;;6.78;4.90;;;;;;;26.92;40.68;99073.23;1830124;77;21037;-76
2021/06/12 09:16:40;;;;;;;5.00;3.92;;;;;;;26.66;40.10;99068.47;1831388;78;21015;-76
2021/06/12 09:19:15;;;;;;;;;;;;;;;26.51;40.01;99074.84;1837352;77;20913;-79
2021/06/12 09:21:46;;;;;;;4.75;3.83;;;;;;;26.33;39.64;99064.31;1827457;77;20127;-77
2021/06/12 09:24:39;;;;;;;6.97;4.60;;;;;;;25.98;40.32;99063.53;1809388;77;21055;-75
2021/06/12 09:27:13;;;;;;;5.85;4.25;;;;;;;25.80;41.24;99075.19;1822725;78;21082;-76
2021/06/12 09:29:44;;;;;;;7.35;4.53;;;;;;;25.74;41.75;99063.08;1834907;77;20979;-74
2021/06/12 09:32:19;;;;;;;6.05;4.17;;;;;;;25.75;42.78;99064.20;1829913;78;20937;-74
2021/06/12 09:34:53;;;;;;;5.12;4.17;;;;;;;25.80;43.80;99063.00;1822183;77;21038;-76
2021/06/12 09:37:27;;;;;;;7.95;5.28;;;;;;;26.03;44.37;99062.05;1822452;77;21569;-73
2021/06/12 09:40:11;;;;;;;6.60;4.70;;;;;;;26.36;44.55;99060.83;1825581;77;20983;-72
2021/06/12 09:42:53;;;;;;;5.67;4.30;;;;;;;26.71;44.78;99060.16;1843952;77;21023;-74
2021/06/12 09:45:26;;;;;;;12.60;5.42;;;;;;;27.03;43.58;99053.14;1839835;77;21060;-75
2021/06/12 09:48:13;;;;;;;8.33;4.62;;;;;;;27.25;43.68;99048.82;1838074;77;20991;-81
2021/06/12 09:50:42;;;;;;;10.00;5.10;;;;;;;27.43;41.64;99040.28;1845846;77;20940;-78
2021/06/12 09:53:14;;;;;;;8.18;4.62;;;;;;;27.39;41.98;99037.23;1841897;77;20976;-79
2021/06/12 09:55:41;;;;;;;6.33;4.75;;;;;;;27.49;41.75;99039.34;1854157;77;21007;-80
2021/06/12 09:58:09;;;;;;;7.95;4.50;;;;;;;27.57;40.45;99034.93;1848861;77;20993;-79
2021/06/12 10:00:42;;;;;;;10.55;4.60;;;;;;;27.60;40.85;99034.98;1853907;77;20960;-80
2021/06/12 10:03:31;;;;;;;5.83;4.03;;;;;;;27.53;40.08;99028.30;1851222;77;20985;-82
2021/06/12 10:06:21;;;;;;;8.95;3.98;;;;;;;27.44;40.03;99028.37;1831427;77;20908;-82
2021/06/12 10:08:51;;;;;;;9.45;4.28;;;;;;;27.31;39.23;99032.92;1842817;77;20977;-81
2021/06/12 10:11:25;;;;;;;4.97;3.95;;;;;;;27.24;39.74;99034.11;1844948;77;21336;-81
2021/06/12 10:13:53;;;;;;;6.55;4.50;;;;;;;27.29;39.23;99036.94;1838545;77;21007;-81
2021/06/12 10:16:22;;;;;;;6.28;3.87;;;;;;;27.26;39.39;99034.70;1837355;77;21432;-80
2021/06/12 10:18:51;;;;;;;6.03;3.95;;;;;;;27.15;40.18;99031.75;1811762;78;21031;-78
2021/06/12 10:21:18;;;;;;;6.37;5.37;;;;;;;26.95;40.93;99023.92;1849035;77;20979;-79
2021/06/12 10:23:45;;;;;;;6.70;4.45;;;;;;;26.83;40.84;99028.52;1846513;77;21076;-83
2021/06/12 10:26:14;;;;;;;7.28;4.50;;;;;;;26.85;40.67;99017.43;1842127;77;20994;-82
2021/06/12 10:28:40;;;;;;;8.80;4.12;;;;;;;26.89;39.95;99012.64;1852440;77;20991;-82
2021/06/12 10:31:23;;;;;;;6.55;4.25;;;;;;;26.82;40.54;99016.02;1841685;77;22137;-85
2021/06/12 10:33:52;;;;;;;6.95;3.95;;;;;;;26.87;41.60;99003.09;1842878;77;20995;-83
2021/06/12 10:36:23;;;;;;;8.05;3.98;;;;;;;27.09;41.46;99010.16;1842907;77;20991;-83
2021/06/12 10:38:51;;;;;;;5.33;4.13;;;;;;;27.27;40.96;99000.53;1853350;77;21038;-82
2021/06/12 10:41:28;;;;;;;6.45;4.22;;;;;;;27.30;40.05;98998.72;1856720;77;21047;-84
2021/06/12 10:44:02;;;;;;;4.90;4.33;;;;;;;27.30;39.65;98992.45;1847951;77;21038;-85
2021/06/12 10:46:33;;;;;;;5.87;4.30;;;;;;;27.30;40.43;98986.52;1854956;77;21018;-84
2021/06/12 10:49:01;;;;;;;10.53;4.95;;;;;;;27.49;40.81;98986.94;1823884;77;20975;-78
2021/06/12 10:51:37;;;;;;;7.70;4.65;;;;;;;27.66;40.80;98981.59;1831418;77;21019;-78
2021/06/12 10:54:26;;;;;;;22.32;4.95;;;;;;;27.84;40.55;98988.25;1839171;77;20936;-79
2021/06/12 10:57:04;;;;;;;9.90;4.42;;;;;;;27.95;39.96;98985.19;1805665;79;21038;-79
2021/06/12 10:59:45;;;;;;;4.42;4.00;;;;;;;28.01;39.68;98981.52;1825356;77;21007;-78
2021/06/12 11:02:42;;;;;;;6.78;4.12;;;;;;;27.99;38.66;98978.74;1824457;77;21011;-78
2021/06/12 11:05:02;;;;;;;4.70;4.20;;;;;;;27.79;39.31;98967.77;1814216;77;20984;-79
2021/06/12 11:07:37;;;;;;;7.25;4.12;;;;;;;27.60;39.52;98973.34;1825757;77;21549;-78
2021/06/12 11:10:16;;;;;;;5.50;4.03;;;;;;;27.60;39.46;98975.24;1838461;77;21519;-78
2021/06/12 11:12:51;;;;;;;5.40;4.70;;;;;;;27.57;40.17;98975.19;1841210;77;21560;-80
2021/06/12 11:15:28;;;;;;;4.78;3.85;;;;;;;27.55;39.78;98967.80;1800885;77;21466;-78
2021/06/12 11:18:17;;;;;;;9.23;4.40;;;;;;;27.69;39.76;98970.27;1830772;77;20943;-78
2021/06/12 11:21:03;;;;;;;7.28;4.12;;;;;;;27.91;39.61;98959.57;1823054;79;21022;-78
2021/06/12 11:23:54;;;;;;;6.00;4.17;;;;;;;28.20;39.90;98959.59;1814392;78;21078;-77
2021/06/12 11:26:22;;;;;;;21.27;4.42;;;;;;;28.46;38.85;98959.54;1823107;79;21058;-76
2021/06/12 11:29:11;;;;;;;4.95;3.98;;;;;;;28.62;38.51;98962.01;1816941;77;21054;-78
2021/06/12 11:31:39;;;;;;;7.33;4.20;;;;;;;28.73;37.35;98965.74;1840478;77;21014;-76
2021/06/12 11:34:25;;;;;;;5.53;4.20;;;;;;;28.78;38.21;98967.19;1816769;77;21061;-75
2021/06/12 11:37:17;;;;;;;5.50;3.90;;;;;;;28.70;38.33;98965.70;1840951;77;20947;-76
2021/06/12 11:39:54;;;;;;;4.75;4.10;;;;;;;28.47;37.22;98968.52;1823809;77;20983;-76